Portada
METAR-TAF:

METAR-TAF

Aeropuertos :

Gorgan, Irán

latitud: 36-49N, longitud: 054-28E, altitud: 155 m

Observación

El informe se hizo hace 58 minutos, a las 13:00 UTC
Viento 4 kt del noreste
Temperatura 20°C
Humedad 56%
Presión 1016 hPa
Visibilidad 10 km o más
Escasas nubes a una altura de 3000 ft

METAR: OING 281300Z 05004KT 9999 FEW030 20/11 Q1016 NOSIG

Hora: 18:28 (13:58 UTC)


TAF: falta

Observaciones y pronósticos meteorológicos de más de 4000 aeropuertos (mensajes METAR y TAF).

Los puntos amarillos y rojos representan las estaciones disponibles.

Ponga el ratón en el punto deseado para ver el nombre de la estación.

Haga clic para ver las observaciones y los pronósticos meteorológicos.

Para cambiar el mapa : haga clic en los botones verdes con una cruz de color negro para hacer un zoom, en el botón verde con un guión para alejar o en las flechas verdes para mapas adyacentes.


METAR-TAF: